Time;durP1;ratioP1;P1;durP2;ratioP2;P2;SDS_P1;SDS_P2;PMS_P1;PMS_P2;Temp;Humidity;BMP_temperature;BMP_pressure;BME280_temperature;BME280_humidity;BME280_pressure;Samples;Min_cycle;Max_cycle;Signal;HPM_P1;HPM_P2
2021/11/04 00:00:46;;;;;;;13.43;12.13;;;;;;;11.81;62.46;96367.72;8350033;28;20390;-71
2021/11/04 00:04:50;;;;;;;11.93;10.73;;;;;;;11.87;62.26;96356.88;8351075;28;20531;-70
2021/11/04 00:08:53;;;;;;;12.63;11.40;;;;;;;11.88;62.11;96388.81;8351082;28;20243;-70
2021/11/04 00:12:56;;;;;;;13.27;12.00;;;;;;;11.89;62.10;96386.16;8350693;28;20236;-70
2021/11/04 00:17:00;;;;;;;14.37;12.30;;;;;;;11.89;62.00;96378.38;8350617;28;20557;-70
2021/11/04 00:21:03;;;;;;;12.80;11.60;;;;;;;11.92;62.05;96361.78;8353089;28;20549;-69
2021/11/04 00:25:08;;;;;;;13.50;12.23;;;;;;;11.88;62.23;96342.13;8353079;28;20228;-70
2021/11/04 00:29:10;;;;;;;13.17;11.97;;;;;;;11.90;62.37;96330.75;8350046;28;20235;-69
2021/11/04 00:33:15;;;;;;;13.40;11.87;;;;;;;11.91;62.36;96324.63;8350088;28;20227;-69
2021/11/04 00:37:18;;;;;;;13.10;11.80;;;;;;;11.88;62.37;96304.06;8350080;28;20228;-70
2021/11/04 00:41:20;;;;;;;13.23;11.90;;;;;;;11.86;62.25;96295.59;8349649;28;20235;-70
2021/11/04 00:45:24;;;;;;;14.53;13.23;;;;;;;11.78;62.54;96282.34;8349384;28;20405;-70
2021/11/04 00:49:28;;;;;;;13.93;12.63;;;;;;;11.80;62.28;96301.22;8348575;28;20239;-70
2021/11/04 00:53:31;;;;;;;14.03;12.73;;;;;;;11.93;62.38;96306.34;8348974;28;20236;-71
2021/11/04 00:57:34;;;;;;;15.27;13.87;;;;;;;11.88;62.44;96311.88;8348945;28;20236;-72
2021/11/04 01:01:37;;;;;;;13.77;12.57;;;;;;;11.87;62.63;96299.00;8348575;28;20250;-70
2021/11/04 01:05:42;;;;;;;15.00;13.50;;;;;;;11.84;62.37;96297.47;8348604;28;20244;-70
2021/11/04 01:09:45;;;;;;;15.50;14.00;;;;;;;11.82;62.52;96277.78;8348931;28;20251;-70
2021/11/04 01:13:50;;;;;;;14.80;13.33;;;;;;;11.86;62.52;96276.59;8349000;28;20231;-70
2021/11/04 01:17:53;;;;;;;14.20;12.80;;;;;;;11.84;62.49;96283.66;8348682;28;20243;-70
2021/11/04 01:21:59;;;;;;;14.50;13.20;;;;;;;11.80;62.65;96293.44;8348474;28;20295;-69
2021/11/04 01:26:02;;;;;;;15.30;13.90;;;;;;;11.82;62.72;96309.75;8348338;28;20242;-70
2021/11/04 01:30:06;;;;;;;14.70;13.40;;;;;;;11.81;62.65;96312.44;8348361;28;20232;-70
2021/11/04 01:34:09;;;;;;;15.00;13.70;;;;;;;11.78;62.84;96312.66;8348151;28;20228;-69
2021/11/04 01:38:13;;;;;;;15.33;13.93;;;;;;;11.74;62.60;96302.50;8348234;28;20236;-69
2021/11/04 01:42:16;;;;;;;16.43;13.47;;;;;;;11.77;62.89;96303.25;8348533;28;20235;-70
2021/11/04 01:46:22;;;;;;;14.43;12.93;;;;;;;11.79;63.02;96298.78;8348796;28;20231;-69
2021/11/04 01:50:29;;;;;;;14.13;12.70;;;;;;;11.79;62.72;96291.00;8347248;28;20239;-70
2021/11/04 01:54:33;;;;;;;14.97;13.47;;;;;;;11.71;62.94;96288.97;8347002;28;20242;-71
2021/11/04 01:58:36;;;;;;;14.97;13.43;;;;;;;11.81;62.84;96284.72;8347326;28;20251;-71
2021/11/04 02:02:43;;;;;;;15.87;14.33;;;;;;;11.79;62.70;96283.22;8346438;28;20243;-71
2021/11/04 02:06:50;;;;;;;16.40;14.80;;;;;;;11.73;62.99;96290.50;8346932;28;20239;-71
2021/11/04 02:10:57;;;;;;;15.90;14.40;;;;;;;11.80;62.93;96283.06;8347124;28;20239;-70
2021/11/04 02:15:00;;;;;;;16.47;14.87;;;;;;;11.78;62.46;96274.56;8347431;28;20239;-71
2021/11/04 02:19:23;;;;;;;16.67;15.17;;;;;;;11.77;62.69;96262.56;8347899;28;20242;-71
2021/11/04 02:23:32;;;;;;;16.67;15.07;;;;;;;11.67;62.84;96259.84;8347015;28;20227;-71
2021/11/04 02:27:37;;;;;;;17.00;15.40;;;;;;;11.79;62.65;96262.47;8346689;28;20248;-71
2021/11/04 02:31:40;;;;;;;17.07;15.27;;;;;;;11.82;62.59;96257.88;8347233;28;20534;-70
2021/11/04 02:35:51;;;;;;;16.37;14.87;;;;;;;11.83;62.77;96259.50;8346738;28;20294;-70
2021/11/04 02:39:54;;;;;;;16.67;15.07;;;;;;;11.81;62.61;96258.78;8346198;28;20236;-70
2021/11/04 02:43:59;;;;;;;17.47;15.77;;;;;;;11.83;62.66;96256.91;8346046;28;20235;-70
2021/11/04 02:48:05;;;;;;;16.80;15.13;;;;;;;11.79;62.58;96268.47;8346012;28;20232;-70
2021/11/04 02:52:08;;;;;;;17.63;15.83;;;;;;;11.74;63.23;96275.75;8345698;28;20232;-70
2021/11/04 02:56:11;;;;;;;17.63;15.93;;;;;;;11.77;62.82;96270.34;8346060;28;20235;-70
2021/11/04 03:00:17;;;;;;;16.47;14.97;;;;;;;11.80;62.89;96258.91;8345946;28;20232;-71
2021/11/04 03:04:21;;;;;;;17.03;15.43;;;;;;;11.74;63.24;96260.19;8321133;28;20236;-70
2021/11/04 03:08:25;;;;;;;17.50;15.90;;;;;;;11.71;63.03;96263.88;8313200;28;20315;-70
2021/11/04 03:12:28;;;;;;;18.17;15.53;;;;;;;11.73;62.88;96269.75;8313062;28;20229;-70
2021/11/04 03:16:37;;;;;;;17.10;15.30;;;;;;;11.72;63.27;96273.28;8319030;28;20266;-71
2021/11/04 03:20:40;;;;;;;16.57;14.87;;;;;;;11.77;63.41;96269.53;8319179;28;20540;-70
2021/11/04 03:24:44;;;;;;;17.77;15.97;;;;;;;11.67;63.68;96269.38;8318717;28;20243;-71
2021/11/04 03:28:47;;;;;;;19.60;17.57;;;;;;;11.59;63.76;96277.75;8318559;28;20256;-71
2021/11/04 03:32:52;;;;;;;17.67;15.87;;;;;;;11.67;63.32;96275.41;8318740;28;20229;-71
2021/11/04 03:36:56;;;;;;;17.40;15.77;;;;;;;11.66;63.45;96270.34;8318815;28;20233;-71
2021/11/04 03:41:00;;;;;;;17.43;15.80;;;;;;;11.63;63.37;96271.41;8318507;28;20239;-70
2021/11/04 03:45:04;;;;;;;17.27;15.60;;;;;;;11.67;63.43;96262.44;8318107;28;20291;-70
2021/11/04 03:49:08;;;;;;;19.03;16.97;;;;;;;11.64;62.98;96251.47;8317804;28;20562;-70
2021/11/04 03:53:11;;;;;;;19.30;17.40;;;;;;;11.47;63.67;96237.19;8318369;28;20245;-70
2021/11/04 03:57:15;;;;;;;18.70;16.37;;;;;;;11.55;63.61;96227.88;8318161;28;20232;-70
2021/11/04 04:01:17;;;;;;;19.67;17.93;;;;;;;11.51;63.62;96228.25;8317467;28;20236;-70
2021/11/04 04:05:31;;;;;;;19.87;18.10;;;;;;;11.48;63.61;96200.81;8317421;28;20252;-70
2021/11/04 04:09:36;;;;;;;20.43;18.27;;;;;;;11.37;63.82;96187.81;8310160;28;20233;-71
2021/11/04 04:13:40;;;;;;;19.40;17.60;;;;;;;11.28;63.92;96202.28;8317273;28;20423;-70
2021/11/04 04:17:42;;;;;;;19.63;17.83;;;;;;;11.30;63.88;96210.78;8316910;28;20244;-71
2021/11/04 04:21:47;;;;;;;18.67;16.93;;;;;;;11.40;64.12;96216.09;8316715;28;20248;-71
2021/11/04 04:25:50;;;;;;;18.50;16.80;;;;;;;11.56;63.09;96208.00;8316499;28;20229;-70
2021/11/04 04:29:53;;;;;;;16.93;15.37;;;;;;;11.42;63.50;96201.25;8316721;28;20244;-71
2021/11/04 04:33:56;;;;;;;18.13;16.43;;;;;;;11.34;63.94;96190.63;8316575;28;20235;-71
2021/11/04 04:38:00;;;;;;;20.40;18.50;;;;;;;11.29;63.82;96201.38;8316474;28;20240;-70
2021/11/04 04:42:03;;;;;;;19.23;17.43;;;;;;;11.37;63.50;96207.75;8316513;28;20232;-70
2021/11/04 04:46:06;;;;;;;18.63;17.00;;;;;;;11.45;63.17;96203.63;8316299;28;20240;-71
2021/11/04 04:50:12;;;;;;;19.83;18.03;;;;;;;11.36;63.91;96199.13;8315914;28;20232;-70
2021/11/04 04:54:17;;;;;;;18.97;17.27;;;;;;;11.46;63.61;96194.91;8316014;28;20233;-71
2021/11/04 04:58:20;;;;;;;20.13;18.23;;;;;;;11.33;63.81;96191.59;8316064;28;20239;-70
2021/11/04 05:02:23;;;;;;;19.37;17.50;;;;;;;11.37;63.48;96202.56;8324165;28;20236;-71
2021/11/04 05:06:26;;;;;;;20.10;18.20;;;;;;;11.41;63.71;96224.72;8347426;28;20224;-71
2021/11/04 05:10:30;;;;;;;19.33;17.37;;;;;;;11.48;63.36;96237.09;8347701;28;20421;-71
2021/11/04 05:14:33;;;;;;;19.50;17.70;;;;;;;11.46;63.69;96253.69;8348146;28;20354;-71
2021/11/04 05:18:36;;;;;;;20.80;18.80;;;;;;;11.46;63.38;96246.75;8347639;28;20235;-71
2021/11/04 05:22:39;;;;;;;20.43;18.43;;;;;;;11.45;63.37;96246.84;8347497;28;20247;-70
2021/11/04 05:26:43;;;;;;;20.50;18.37;;;;;;;11.45;63.63;96268.41;8347959;28;20232;-70
2021/11/04 05:30:48;;;;;;;20.10;18.20;;;;;;;11.52;63.46;96273.97;8347671;28;20239;-70
2021/11/04 05:34:51;;;;;;;20.90;18.70;;;;;;;11.42;63.73;96284.19;8347148;28;20295;-70
2021/11/04 05:38:55;;;;;;;18.07;16.37;;;;;;;11.48;63.62;96294.13;8346755;28;20236;-70
2021/11/04 05:43:02;;;;;;;17.10;15.50;;;;;;;11.55;63.47;96289.28;8346976;28;20254;-70
2021/11/04 05:47:06;;;;;;;18.67;15.97;;;;;;;11.50;63.74;96300.00;8347694;28;20232;-70
2021/11/04 05:51:13;;;;;;;17.70;16.00;;;;;;;11.54;63.04;96327.34;8346992;28;20413;-70
2021/11/04 05:55:16;;;;;;;17.43;15.83;;;;;;;11.56;63.06;96322.06;8346777;28;20232;-70
2021/11/04 05:59:22;;;;;;;18.37;16.47;;;;;;;11.59;63.38;96329.59;8346987;28;20239;-70
2021/11/04 06:03:24;;;;;;;16.83;15.33;;;;;;;11.53;63.53;96319.69;8346809;28;20324;-70
2021/11/04 06:07:28;;;;;;;17.80;16.13;;;;;;;11.47;63.58;96326.16;8346273;28;20227;-70
2021/11/04 06:11:33;;;;;;;18.07;16.37;;;;;;;11.45;63.69;96324.63;8346592;28;20519;-71
2021/11/04 06:15:37;;;;;;;17.17;15.33;;;;;;;11.49;63.33;96346.78;8346575;28;20243;-71
2021/11/04 06:19:40;;;;;;;17.40;15.70;;;;;;;11.51;63.13;96356.09;8346770;28;20585;-71
2021/11/04 06:23:43;;;;;;;17.90;16.20;;;;;;;11.44;63.63;96339.34;8346488;28;20492;-70
2021/11/04 06:27:46;;;;;;;18.37;16.57;;;;;;;11.36;63.90;96331.28;8346382;28;20247;-70
2021/11/04 06:31:50;;;;;;;17.77;16.07;;;;;;;11.38;63.67;96334.59;8346705;28;20227;-70
2021/11/04 06:35:54;;;;;;;17.53;15.83;;;;;;;11.38;63.82;96323.41;8346216;28;20227;-70
2021/11/04 06:39:57;;;;;;;18.60;16.87;;;;;;;11.33;64.25;96329.75;8346177;28;20243;-70
2021/11/04 06:43:59;;;;;;;18.57;16.40;;;;;;;11.35;63.92;96327.06;8346377;28;20573;-71
2021/11/04 06:48:05;;;;;;;18.13;16.33;;;;;;;11.33;64.17;96334.94;8349481;28;20231;-70
2021/11/04 06:52:11;;;;;;;17.27;15.50;;;;;;;11.31;64.35;96320.47;8352517;28;20240;-70
2021/11/04 06:56:15;;;;;;;18.60;16.73;;;;;;;11.38;64.28;96318.22;8352581;28;20254;-70
2021/11/04 07:00:20;;;;;;;17.83;16.13;;;;;;;11.40;63.57;96337.91;8352338;28;20239;-70
2021/11/04 07:04:29;;;;;;;17.60;15.90;;;;;;;11.25;64.31;96358.00;8351152;28;21587;-71
2021/11/04 07:08:39;;;;;;;16.90;15.40;;;;;;;11.33;64.02;96363.47;8350845;28;20224;-71
2021/11/04 07:12:44;;;;;;;16.77;15.17;;;;;;;11.17;64.41;96367.28;8349432;28;20232;-70
2021/11/04 07:16:48;;;;;;;15.70;14.20;;;;;;;11.18;64.41;96379.31;8351250;28;20232;-71
2021/11/04 07:20:55;;;;;;;15.47;13.97;;;;;;;11.20;64.22;96385.19;8351442;28;20239;-70
2021/11/04 07:25:04;;;;;;;13.60;12.40;;;;;;;11.25;64.27;96407.25;8350804;28;20225;-70
2021/11/04 07:29:09;;;;;;;14.07;12.67;;;;;;;11.18;64.66;96411.22;8350373;28;20531;-70
2021/11/04 07:33:15;;;;;;;14.40;12.17;;;;;;;11.45;64.36;96408.38;8351103;28;20242;-69
2021/11/04 07:37:20;;;;;;;13.43;12.13;;;;;;;11.37;64.07;96407.31;8349407;28;20250;-69
2021/11/04 07:41:23;;;;;;;13.10;11.90;;;;;;;11.20;64.63;96419.69;8350744;28;20236;-69
2021/11/04 07:45:27;;;;;;;11.97;10.83;;;;;;;11.24;63.79;96405.59;8350390;28;20518;-70
2021/11/04 07:49:30;;;;;;;12.20;11.10;;;;;;;11.03;64.79;96407.13;8351085;28;20228;-70
2021/11/04 07:53:34;;;;;;;10.13;9.23;;;;;;;11.05;65.08;96402.66;8350968;28;20243;-70
2021/11/04 07:57:39;;;;;;;9.93;9.03;;;;;;;11.02;65.45;96408.03;8350981;28;20240;-69
2021/11/04 08:01:42;;;;;;;7.70;7.00;;;;;;;11.20;64.80;96422.28;8350028;28;20225;-71
2021/11/04 08:05:44;;;;;;;6.10;5.60;;;;;;;11.15;64.45;96414.81;8350263;28;20295;-69
2021/11/04 08:09:50;;;;;;;5.93;5.33;;;;;;;11.21;64.40;96410.97;8350431;28;20243;-69
2021/11/04 08:13:53;;;;;;;5.10;4.60;;;;;;;11.08;65.26;96424.00;8349841;28;20232;-69
2021/11/04 08:17:56;;;;;;;3.50;3.20;;;;;;;11.09;64.80;96423.03;8350242;28;20414;-69
2021/11/04 08:21:59;;;;;;;3.33;3.03;;;;;;;11.11;64.25;96434.13;8349957;28;20231;-72
2021/11/04 08:26:05;;;;;;;3.20;3.00;;;;;;;11.22;64.17;96443.75;8333447;28;20338;-69
2021/11/04 08:30:14;;;;;;;2.40;2.07;;;;;;;11.00;63.14;96454.78;8317129;28;20412;-70
2021/11/04 08:34:17;;;;;;;1.90;1.80;;;;;;;10.98;63.06;96453.22;8316827;28;20262;-70
2021/11/04 08:38:22;;;;;;;1.67;1.57;;;;;;;10.85;63.27;96451.53;8326957;28;20228;-69
2021/11/04 08:42:26;;;;;;;1.50;1.37;;;;;;;10.93;62.92;96456.97;8349181;28;20228;-69
2021/11/04 08:46:29;;;;;;;1.40;1.30;;;;;;;10.60;63.38;96462.72;8347891;28;20231;-70
2021/11/04 08:50:33;;;;;;;1.73;1.63;;;;;;;11.06;63.22;96472.50;8348090;28;20403;-70
2021/11/04 08:54:36;;;;;;;1.57;1.20;;;;;;;11.00;62.45;96480.69;8347715;28;20239;-70
2021/11/04 08:58:40;;;;;;;1.00;1.00;;;;;;;10.76;62.83;96481.44;8345080;28;20231;-69
2021/11/04 09:02:43;;;;;;;0.90;0.90;;;;;;;10.96;62.54;96494.78;8348369;28;20236;-69
2021/11/04 09:06:50;;;;;;;0.70;0.70;;;;;;;10.91;62.15;96495.13;8348022;28;20263;-69
2021/11/04 09:10:54;;;;;;;1.53;0.83;;;;;;;10.90;62.53;96505.56;8346196;28;20228;-69
2021/11/04 09:14:59;;;;;;;0.67;0.67;;;;;;;10.98;62.78;96505.84;8344636;28;20224;-70
2021/11/04 09:19:02;;;;;;;0.77;0.70;;;;;;;10.89;62.94;96512.53;8347039;28;20224;-69
2021/11/04 09:23:05;;;;;;;1.30;0.80;;;;;;;10.87;63.23;96516.13;8346787;28;20239;-69
2021/11/04 09:27:08;;;;;;;0.70;0.70;;;;;;;10.93;62.62;96519.13;8347015;28;20246;-69
2021/11/04 09:31:12;;;;;;;0.77;0.57;;;;;;;10.79;62.65;96536.56;8347207;28;20426;-69
2021/11/04 09:35:16;;;;;;;0.80;0.80;;;;;;;10.91;62.56;96539.13;8347398;28;20228;-69
2021/11/04 09:39:19;;;;;;;3.17;0.90;;;;;;;11.01;62.37;96548.88;8347234;28;20228;-69
2021/11/04 09:43:22;;;;;;;0.60;0.57;;;;;;;10.83;61.77;96556.94;8347353;28;20231;-70
2021/11/04 09:47:27;;;;;;;0.80;0.60;;;;;;;10.92;61.64;96565.88;8347231;28;20232;-69
2021/11/04 09:51:31;;;;;;;0.70;0.70;;;;;;;10.92;61.73;96568.44;8346598;28;20361;-71
2021/11/04 09:55:41;;;;;;;1.00;0.90;;;;;;;11.00;61.49;96578.28;8346758;28;20255;-69
2021/11/04 09:59:44;;;;;;;1.13;0.90;;;;;;;10.88;61.46;96580.78;8347212;28;20243;-70
2021/11/04 10:03:48;;;;;;;2.80;0.90;;;;;;;10.70;62.16;96593.22;8347011;28;20239;-70
2021/11/04 10:07:51;;;;;;;1.00;1.00;;;;;;;10.73;61.98;96593.00;8346347;28;20291;-70
2021/11/04 10:11:55;;;;;;;1.17;1.03;;;;;;;11.03;61.79;96594.47;8346050;28;20439;-70
2021/11/04 10:15:58;;;;;;;1.53;0.97;;;;;;;11.00;61.80;96599.84;8346640;28;20323;-70
2021/11/04 10:20:13;;;;;;;1.37;1.20;;;;;;;10.92;61.84;96602.94;8345725;28;20235;-70
2021/11/04 10:24:18;;;;;;;3.20;1.53;;;;;;;11.12;61.92;96601.59;8350529;28;20228;-70
2021/11/04 10:28:26;;;;;;;1.77;1.50;;;;;;;11.26;61.15;96599.84;8353030;28;20232;-70
2021/11/04 10:32:33;;;;;;;3.07;1.43;;;;;;;11.22;62.02;96614.75;8351966;28;20223;-70
2021/11/04 10:36:38;;;;;;;2.00;1.40;;;;;;;11.26;60.94;96618.78;8351937;28;20238;-70
2021/11/04 10:40:41;;;;;;;1.50;1.30;;;;;;;11.25;61.84;96622.34;8351670;28;20232;-70
2021/11/04 10:44:45;;;;;;;1.83;1.43;;;;;;;11.43;61.12;96619.41;8351527;28;20523;-70
2021/11/04 10:48:56;;;;;;;3.27;1.40;;;;;;;11.44;60.81;96628.81;8349757;28;20236;-70
2021/11/04 10:53:07;;;;;;;1.50;1.40;;;;;;;11.35;60.60;96638.91;8350992;28;20258;-70
2021/11/04 10:57:10;;;;;;;2.23;1.40;;;;;;;11.36;61.22;96639.72;8351486;28;20235;-70
2021/11/04 11:01:29;;;;;;;1.50;1.40;;;;;;;11.35;61.01;96645.84;8348885;28;20304;-70
2021/11/04 11:05:34;;;;;;;1.30;1.20;;;;;;;11.19;61.76;96655.59;8350709;28;20295;-77
2021/11/04 11:09:41;;;;;;;1.40;1.30;;;;;;;10.82;62.93;96656.28;8351369;28;20435;-70
2021/11/04 11:13:47;;;;;;;2.10;1.90;;;;;;;10.95;63.08;96658.91;8350636;28;20228;-70
2021/11/04 11:17:50;;;;;;;1.50;1.40;;;;;;;11.20;62.14;96662.44;8348233;28;20232;-70
2021/11/04 11:21:54;;;;;;;1.40;1.30;;;;;;;11.27;61.23;96668.84;8350461;28;20235;-70
2021/11/04 11:25:59;;;;;;;1.63;1.53;;;;;;;11.02;61.50;96674.84;8349845;28;20224;-70
2021/11/04 11:30:09;;;;;;;1.53;1.43;;;;;;;11.15;61.68;96679.09;8351451;28;20243;-70
2021/11/04 11:34:29;;;;;;;1.47;1.37;;;;;;;11.11;61.37;96680.25;8350655;28;20531;-70
2021/11/04 11:38:31;;;;;;;1.40;1.30;;;;;;;11.44;61.44;96680.66;8350551;28;20224;-70
2021/11/04 11:42:36;;;;;;;1.30;1.20;;;;;;;11.29;61.07;96690.31;8350718;28;20244;-70
2021/11/04 11:47:02;;;;;;;2.27;1.30;;;;;;;11.44;61.39;96701.41;8350579;28;20239;-70
2021/11/04 11:51:05;;;;;;;1.27;1.17;;;;;;;11.35;61.06;96693.34;8350413;28;20238;-69
2021/11/04 11:55:10;;;;;;;1.30;1.20;;;;;;;11.02;61.75;96700.75;8350454;28;20291;-70
2021/11/04 11:59:22;;;;;;;1.20;1.10;;;;;;;11.16;62.17;96705.88;8350128;28;20311;-70
2021/11/04 12:04:00;;;;;;;1.47;1.37;;;;;;;10.90;62.42;96713.59;8350109;28;20546;-70
2021/11/04 12:08:31;;;;;;;5.23;1.30;;;;;;;11.77;69.23;96720.81;8281228;28;20236;-70
2021/11/04 12:12:47;;;;;;;4.13;1.33;;;;;;;12.67;65.44;96716.19;8320992;28;20236;-68
2021/11/04 12:17:09;;;;;;;1.43;1.30;;;;;;;12.75;61.60;96724.25;8349792;28;20287;-68
2021/11/04 12:21:20;;;;;;;4.07;1.03;;;;;;;13.40;59.01;96729.91;8349483;28;20224;-69
2021/11/04 12:25:25;;;;;;;0.90;0.90;;;;;;;12.43;57.01;96735.19;8349557;28;20562;-69
2021/11/04 12:29:28;;;;;;;0.90;0.90;;;;;;;12.08;58.93;96742.88;8348974;28;20302;-70
2021/11/04 12:33:35;;;;;;;1.27;1.03;;;;;;;11.78;59.58;96759.56;8349027;28;20232;-72
2021/11/04 12:37:38;;;;;;;0.93;0.90;;;;;;;11.60;60.71;96769.44;8349613;28;20236;-69
2021/11/04 12:41:49;;;;;;;1.57;1.13;;;;;;;11.43;60.66;96769.75;8349116;28;20448;-68
2021/11/04 12:45:52;;;;;;;0.90;0.90;;;;;;;11.40;60.97;96775.13;8348686;28;20232;-68
2021/11/04 12:49:56;;;;;;;0.90;0.80;;;;;;;11.24;60.96;96785.69;8348678;28;20235;-67
2021/11/04 12:54:02;;;;;;;1.33;1.00;;;;;;;11.18;61.54;96786.94;8348303;28;20243;-67
2021/11/04 12:58:08;;;;;;;0.93;0.93;;;;;;;11.06;62.31;96782.53;8348830;28;20228;-68
2021/11/04 13:02:13;;;;;;;1.23;0.93;;;;;;;10.86;62.63;96794.19;8347809;28;20238;-68
2021/11/04 13:06:26;;;;;;;0.90;0.90;;;;;;;11.03;63.24;96798.28;8348125;28;20248;-67
2021/11/04 13:10:30;;;;;;;2.93;1.13;;;;;;;10.86;63.21;96807.16;8348238;28;20244;-67
2021/11/04 13:15:10;;;;;;;1.20;0.90;;;;;;;10.89;63.34;96825.91;8347877;28;20538;-68
2021/11/04 13:19:22;;;;;;;1.67;0.90;;;;;;;11.14;63.16;96825.16;8348074;28;20230;-67
2021/11/04 13:23:28;;;;;;;1.13;1.03;;;;;;;11.21;62.82;96835.13;8346730;28;20243;-67
2021/11/04 13:27:32;;;;;;;2.03;0.80;;;;;;;11.24;62.78;96850.47;8347032;28;20235;-68
2021/11/04 13:31:35;;;;;;;1.40;1.10;;;;;;;11.23;62.72;96857.44;8347737;28;20240;-67
2021/11/04 13:35:40;;;;;;;2.90;1.60;;;;;;;11.25;62.77;96854.72;8347524;28;20252;-67
2021/11/04 13:39:48;;;;;;;1.83;1.70;;;;;;;10.95;62.55;96863.53;8347255;28;20411;-68
2021/11/04 13:43:51;;;;;;;1.63;1.50;;;;;;;11.24;62.98;96871.22;8347123;28;20232;-67
2021/11/04 13:48:00;;;;;;;3.30;2.10;;;;;;;10.77;64.09;96883.66;8346708;28;20227;-67
2021/11/04 13:52:06;;;;;;;1.73;1.63;;;;;;;11.10;63.44;96877.25;8346711;28;20236;-66
2021/11/04 13:56:13;;;;;;;2.30;2.10;;;;;;;10.89;63.75;96895.00;8346570;28;20310;-66
2021/11/04 14:00:27;;;;;;;3.20;2.90;;;;;;;10.98;62.70;96904.78;8346889;28;20227;-66
2021/11/04 14:04:31;;;;;;;6.87;3.23;;;;;;;10.86;63.75;96908.16;8346398;28;20242;-67
2021/11/04 14:08:42;;;;;;;5.13;4.63;;;;;;;10.71;63.64;96922.88;8346947;28;20247;-66
2021/11/04 14:12:50;;;;;;;6.97;6.17;;;;;;;10.69;63.45;96928.16;8345209;28;20473;-66
2021/11/04 14:17:03;;;;;;;7.20;6.50;;;;;;;10.35;63.61;96929.34;8346468;28;20232;-67
2021/11/04 14:21:06;;;;;;;9.87;8.70;;;;;;;10.57;63.50;96937.50;8346801;28;20400;-68
2021/11/04 14:25:12;;;;;;;9.87;8.23;;;;;;;10.71;63.27;96944.41;8346562;28;20565;-67
2021/11/04 14:29:16;;;;;;;10.10;8.33;;;;;;;10.52;63.31;96956.81;8346152;28;20224;-67
2021/11/04 14:33:20;;;;;;;9.47;8.17;;;;;;;10.49;63.60;96965.63;8346669;28;20242;-66
2021/11/04 14:37:23;;;;;;;11.17;8.27;;;;;;;10.66;63.74;96974.09;8346815;28;20227;-67
2021/11/04 14:41:26;;;;;;;8.97;8.07;;;;;;;10.64;62.95;96987.16;8345758;28;20462;-68
2021/11/04 14:45:30;;;;;;;10.00;9.00;;;;;;;10.61;63.25;96987.34;8346323;28;20232;-67
2021/11/04 14:49:33;;;;;;;11.07;9.57;;;;;;;10.54;63.13;96993.81;8345913;28;20228;-67
2021/11/04 14:53:37;;;;;;;11.53;10.43;;;;;;;10.69;62.89;97000.66;8345853;28;20594;-68
2021/11/04 14:57:41;;;;;;;15.20;11.60;;;;;;;10.60;62.86;97008.97;8345802;28;20236;-67
2021/11/04 15:01:45;;;;;;;15.70;13.00;;;;;;;10.36;62.90;97011.25;8345514;28;20271;-68
2021/11/04 15:05:48;;;;;;;14.90;13.30;;;;;;;10.36;62.79;97019.84;8345729;28;20243;-68
2021/11/04 15:09:51;;;;;;;16.63;13.47;;;;;;;10.49;62.54;97019.97;8349803;28;20236;-67
2021/11/04 15:13:54;;;;;;;14.90;12.73;;;;;;;10.50;62.84;97031.97;8352003;28;20407;-67
2021/11/04 15:17:58;;;;;;;15.43;13.63;;;;;;;10.62;61.71;97042.53;8351615;28;20232;-67
2021/11/04 15:22:02;;;;;;;14.60;12.63;;;;;;;10.61;61.88;97044.28;8351609;28;20418;-67
2021/11/04 15:26:07;;;;;;;15.17;13.43;;;;;;;10.37;63.01;97054.31;8351884;28;20231;-67
2021/11/04 15:30:11;;;;;;;17.30;13.30;;;;;;;10.38;62.20;97076.72;8351503;28;20301;-67
2021/11/04 15:34:15;;;;;;;15.40;13.17;;;;;;;10.45;62.33;97077.16;8351252;28;20242;-68
2021/11/04 15:38:18;;;;;;;14.73;13.20;;;;;;;10.72;62.04;97087.69;8351301;28;20232;-67
2021/11/04 15:42:21;;;;;;;15.37;13.27;;;;;;;10.73;61.43;97089.34;8350964;28;20235;-68
2021/11/04 15:46:24;;;;;;;16.57;14.67;;;;;;;10.63;61.76;97102.00;8351032;28;20232;-66
2021/11/04 15:50:28;;;;;;;15.13;13.50;;;;;;;10.71;61.29;97106.72;8350358;28;20232;-67
2021/11/04 15:54:31;;;;;;;16.27;13.97;;;;;;;10.67;61.35;97126.78;8350577;28;20240;-67
2021/11/04 15:58:34;;;;;;;15.20;12.83;;;;;;;10.55;61.19;97122.34;8350841;28;20403;-66
2021/11/04 16:02:37;;;;;;;16.10;13.63;;;;;;;10.65;61.38;97125.22;8350508;28;20240;-67
2021/11/04 16:06:46;;;;;;;17.93;13.07;;;;;;;10.67;60.95;97137.16;8350597;28;20562;-67
2021/11/04 16:10:48;;;;;;;14.90;11.90;;;;;;;10.62;61.51;97144.34;8350229;28;20239;-67
2021/11/04 16:14:54;;;;;;;13.27;11.73;;;;;;;10.64;61.07;97154.59;8347640;28;20232;-66
2021/11/04 16:18:57;;;;;;;14.37;11.33;;;;;;;10.54;60.88;97159.47;8350009;28;20235;-67
2021/11/04 16:23:01;;;;;;;14.53;11.90;;;;;;;10.68;61.13;97166.44;8349493;28;20430;-67
2021/11/04 16:27:05;;;;;;;16.63;12.03;;;;;;;10.73;60.64;97165.25;8349292;28;20589;-67
2021/11/04 16:31:08;;;;;;;12.70;10.93;;;;;;;10.55;61.55;97180.13;8349310;28;20423;-67
2021/11/04 16:35:11;;;;;;;12.00;10.80;;;;;;;10.48;61.12;97188.31;8349360;28;20239;-66
2021/11/04 16:39:15;;;;;;;11.33;10.13;;;;;;;10.44;60.92;97190.25;8349112;28;20228;-66
2021/11/04 16:43:21;;;;;;;13.63;11.40;;;;;;;10.43;60.78;97192.91;8349107;28;20565;-66
2021/11/04 16:47:26;;;;;;;11.33;10.13;;;;;;;10.61;60.29;97193.63;8348665;28;20542;-66
2021/11/04 16:51:29;;;;;;;11.13;10.13;;;;;;;10.42;60.66;97207.59;8348491;28;20235;-68
2021/11/04 16:55:35;;;;;;;9.23;8.30;;;;;;;10.42;60.48;97217.13;8348606;28;20238;-68
2021/11/04 16:59:38;;;;;;;11.33;10.17;;;;;;;10.43;61.03;97222.19;8348469;28;20413;-68
2021/11/04 17:03:40;;;;;;;11.00;9.03;;;;;;;10.36;60.90;97236.44;8348323;28;20276;-67
2021/11/04 17:07:43;;;;;;;13.53;9.33;;;;;;;10.49;60.49;97236.56;8348339;28;20240;-67
2021/11/04 17:11:48;;;;;;;10.10;8.37;;;;;;;10.43;60.52;97249.84;8348053;28;20415;-67
2021/11/04 17:15:51;;;;;;;9.43;8.10;;;;;;;10.35;60.11;97252.88;8347395;28;20232;-67
2021/11/04 17:19:54;;;;;;;10.00;8.43;;;;;;;10.33;60.19;97259.88;8347959;28;20562;-67
2021/11/04 17:23:57;;;;;;;9.07;8.27;;;;;;;10.37;59.93;97261.38;8348009;28;20236;-66
2021/11/04 17:28:02;;;;;;;9.93;8.87;;;;;;;10.30;60.17;97271.25;8347191;28;20247;-68
2021/11/04 17:32:06;;;;;;;9.20;8.30;;;;;;;10.43;59.62;97273.97;8345888;28;20254;-67
2021/11/04 17:36:09;;;;;;;9.87;8.97;;;;;;;10.43;59.83;97279.16;8347604;28;20228;-67
2021/11/04 17:40:12;;;;;;;10.63;9.60;;;;;;;10.33;59.88;97291.75;8347431;28;20228;-67
2021/11/04 17:44:19;;;;;;;10.63;9.52;;;;;;;10.80;58.61;97292.66;8345574;28;20480;-68
2021/11/04 17:48:23;;;;;;;13.30;10.90;;;;;;;10.44;59.41;97304.13;8347248;28;20232;-69
2021/11/04 17:52:26;;;;;;;11.30;10.20;;;;;;;10.37;59.92;97301.03;8346494;28;20228;-68
2021/11/04 17:56:29;;;;;;;10.83;9.83;;;;;;;10.36;59.78;97311.50;8346808;28;20228;-68
2021/11/04 18:00:34;;;;;;;12.50;11.20;;;;;;;10.43;60.19;97320.56;8346336;28;20296;-68
2021/11/04 18:04:37;;;;;;;11.27;10.17;;;;;;;10.57;59.42;97320.66;8346244;28;20246;-67
2021/11/04 18:08:40;;;;;;;12.23;11.03;;;;;;;10.55;59.77;97325.09;8346204;28;20295;-67
2021/11/04 18:12:43;;;;;;;13.77;12.47;;;;;;;10.48;60.08;97325.50;8346262;28;20242;-67
2021/11/04 18:16:48;;;;;;;12.93;11.23;;;;;;;10.48;60.12;97333.28;8346007;28;20227;-68
2021/11/04 18:20:51;;;;;;;13.50;12.20;;;;;;;10.41;60.44;97343.13;8345585;28;20235;-68
2021/11/04 18:24:54;;;;;;;14.23;11.93;;;;;;;10.33;60.12;97347.88;8346121;28;20235;-68
2021/11/04 18:28:58;;;;;;;17.93;13.70;;;;;;;10.40;60.21;97349.22;8346137;28;20580;-68
2021/11/04 18:33:02;;;;;;;17.37;15.70;;;;;;;10.47;60.12;97354.91;8346371;28;20506;-68
2021/11/04 18:37:05;;;;;;;15.67;14.07;;;;;;;10.27;60.92;97355.94;8346120;28;20228;-68
2021/11/04 18:41:08;;;;;;;16.47;14.73;;;;;;;10.48;60.44;97343.63;8346215;28;20429;-68
2021/11/04 18:45:11;;;;;;;15.10;13.63;;;;;;;10.45;59.77;97351.56;8350965;28;20238;-68
2021/11/04 18:49:16;;;;;;;18.33;16.43;;;;;;;10.32;60.61;97369.50;8352738;28;20419;-68
2021/11/04 18:53:21;;;;;;;16.10;14.27;;;;;;;10.28;60.11;97370.53;8352361;28;20249;-67
2021/11/04 18:57:24;;;;;;;16.13;14.53;;;;;;;10.36;60.08;97366.66;8352562;28;20232;-68